createdAt,value
2022-10-01T00:00:29.250Z,2.63
2022-10-01T00:02:55.882Z,2.67
2022-10-01T00:05:22.736Z,2.60
2022-10-01T00:07:49.274Z,2.90
2022-10-01T00:10:16.422Z,3.00
2022-10-01T00:12:48.655Z,3.15
2022-10-01T00:15:17.096Z,2.65
2022-10-01T00:17:43.769Z,2.85
2022-10-01T00:20:14.694Z,3.10
2022-10-01T00:22:41.692Z,2.97
2022-10-01T00:25:08.319Z,2.90
2022-10-01T00:27:35.889Z,2.90
2022-10-01T00:30:07.035Z,2.85
2022-10-01T00:32:33.696Z,3.45
2022-10-01T00:35:00.789Z,3.10
2022-10-01T00:37:28.934Z,2.90
2022-10-01T00:39:55.490Z,3.30
2022-10-01T00:42:30.510Z,2.95
2022-10-01T00:44:58.298Z,3.40
2022-10-01T00:47:50.529Z,3.28
2022-10-01T00:50:29.247Z,3.22
2022-10-01T00:53:00.293Z,3.90
2022-10-01T00:55:32.375Z,3.33
2022-10-01T00:57:59.273Z,3.40
2022-10-01T01:00:25.978Z,3.30
2022-10-01T01:02:52.636Z,3.10
2022-10-01T01:05:19.765Z,3.45
2022-10-01T01:07:49.394Z,3.22
2022-10-01T01:10:20.249Z,3.67
2022-10-01T01:12:56.007Z,3.40
2022-10-01T01:15:49.192Z,3.67
2022-10-01T01:18:52.453Z,4.13
2022-10-01T01:21:31.095Z,3.65
2022-10-01T01:24:06.908Z,3.63
2022-10-01T01:26:41.110Z,3.55
2022-10-01T01:29:27.624Z,3.67
2022-10-01T01:32:03.636Z,4.18
2022-10-01T01:34:33.289Z,3.50
2022-10-01T01:37:13.072Z,4.68
2022-10-01T01:39:46.140Z,4.40
2022-10-01T01:42:21.446Z,4.03
2022-10-01T01:44:51.380Z,4.22
2022-10-01T01:47:21.960Z,4.07
2022-10-01T01:49:51.031Z,4.30
2022-10-01T01:52:18.022Z,3.88
2022-10-01T01:54:49.781Z,4.13
2022-10-01T01:57:18.184Z,4.25
2022-10-01T01:59:45.290Z,4.18
2022-10-01T02:02:23.601Z,4.10
2022-10-01T02:05:12.482Z,4.65
2022-10-01T02:07:54.208Z,4.35
2022-10-01T02:10:47.465Z,3.85
2022-10-01T02:13:40.093Z,4.20
2022-10-01T02:16:25.931Z,4.25
2022-10-01T02:18:52.986Z,4.25
2022-10-01T02:21:19.461Z,3.95
2022-10-01T02:23:58.928Z,3.90
2022-10-01T02:26:28.819Z,4.38
2022-10-01T02:29:01.508Z,4.13
2022-10-01T02:31:30.785Z,3.55
2022-10-01T02:34:00.917Z,4.10
2022-10-01T02:36:29.812Z,3.60
2022-10-01T02:38:58.861Z,3.90
2022-10-01T02:41:31.298Z,3.83
2022-10-01T02:44:06.224Z,3.88
2022-10-01T02:46:38.466Z,3.85
2022-10-01T02:49:05.638Z,3.70
2022-10-01T02:51:53.358Z,3.50
2022-10-01T02:54:27.698Z,3.63
2022-10-01T02:57:13.208Z,3.55
2022-10-01T02:59:39.725Z,3.00
2022-10-01T03:02:06.519Z,3.65
2022-10-01T03:04:33.360Z,3.25
2022-10-01T03:07:04.454Z,3.13
2022-10-01T03:09:31.928Z,3.92
2022-10-01T03:11:59.488Z,3.20
2022-10-01T03:14:26.020Z,3.10
2022-10-01T03:16:53.393Z,3.42
2022-10-01T03:19:19.995Z,2.90
2022-10-01T03:21:46.864Z,2.78
2022-10-01T03:24:13.445Z,2.80
2022-10-01T03:26:39.970Z,3.00
2022-10-01T03:29:06.619Z,3.22
2022-10-01T03:31:33.679Z,2.50
2022-10-01T03:34:00.682Z,2.42
2022-10-01T03:36:28.003Z,3.40
2022-10-01T03:38:54.661Z,2.60
2022-10-01T03:41:21.271Z,2.20
2022-10-01T03:44:08.290Z,2.78
2022-10-01T03:46:34.843Z,2.60
2022-10-01T03:49:01.563Z,2.58
2022-10-01T03:51:29.332Z,2.33
2022-10-01T03:53:58.201Z,2.65
2022-10-01T03:56:25.466Z,2.10
2022-10-01T03:58:52.118Z,1.95
2022-10-01T04:01:18.735Z,2.00
2022-10-01T04:03:50.342Z,2.05
2022-10-01T04:06:16.953Z,2.00
2022-10-01T04:08:43.571Z,2.15
2022-10-01T04:11:10.938Z,1.60
2022-10-01T04:13:37.528Z,1.60
2022-10-01T04:16:05.651Z,1.70
2022-10-01T04:18:32.733Z,1.80
2022-10-01T04:20:59.493Z,1.55
2022-10-01T04:23:26.574Z,1.40
2022-10-01T04:25:53.158Z,1.38
2022-10-01T04:28:20.073Z,1.50
2022-10-01T04:30:47.048Z,1.30
2022-10-01T04:33:15.790Z,1.17
2022-10-01T04:35:43.555Z,1.35
2022-10-01T04:38:14.546Z,1.27
2022-10-01T04:40:41.581Z,1.30
2022-10-01T04:43:09.761Z,1.30
2022-10-01T04:45:37.609Z,1.40
2022-10-01T04:48:05.162Z,1.05
2022-10-01T04:50:32.310Z,1.00
2022-10-01T04:52:59.023Z,1.35
2022-10-01T04:55:25.835Z,1.17
2022-10-01T04:57:52.457Z,1.65
2022-10-01T05:00:21.918Z,1.20
2022-10-01T05:02:50.092Z,1.10
2022-10-01T05:05:18.836Z,1.30
2022-10-01T05:07:45.868Z,1.20
2022-10-01T05:10:23.019Z,1.02
2022-10-01T05:12:51.682Z,1.15
2022-10-01T05:15:18.905Z,1.02
2022-10-01T05:17:46.645Z,1.30
2022-10-01T05:20:21.910Z,1.40
2022-10-01T05:22:49.501Z,1.45
2022-10-01T05:25:16.922Z,1.60
2022-10-01T05:27:43.669Z,1.77
2022-10-01T05:30:12.416Z,1.42
2022-10-01T05:32:39.498Z,1.33
2022-10-01T05:35:08.351Z,1.77
2022-10-01T05:37:35.539Z,1.90
2022-10-01T05:40:02.965Z,1.95
2022-10-01T05:42:29.473Z,1.70
2022-10-01T05:44:56.199Z,1.70
2022-10-01T05:47:22.980Z,1.60
2022-10-01T05:49:49.597Z,1.50
2022-10-01T05:52:16.559Z,1.33
2022-10-01T05:54:43.266Z,1.77
2022-10-01T05:57:10.452Z,1.58
2022-10-01T05:59:37.167Z,1.45
2022-10-01T06:02:04.517Z,1.40
2022-10-01T06:04:31.421Z,1.42
2022-10-01T06:06:58.244Z,1.45
2022-10-01T06:09:24.845Z,1.48
2022-10-01T06:11:51.499Z,1.23
2022-10-01T06:14:19.090Z,1.30
2022-10-01T06:16:47.073Z,1.52
2022-10-01T06:19:13.842Z,1.67
2022-10-01T06:21:40.514Z,1.30
2022-10-01T06:24:07.278Z,1.20
2022-10-01T06:26:33.904Z,1.30
2022-10-01T06:29:00.496Z,1.30
2022-10-01T06:31:27.133Z,1.40
2022-10-01T06:33:53.884Z,1.58
2022-10-01T06:36:20.356Z,1.20
2022-10-01T06:38:50.064Z,1.48
2022-10-01T06:41:16.625Z,1.50
2022-10-01T06:43:43.250Z,1.67
2022-10-01T06:46:11.275Z,2.20
2022-10-01T06:48:37.991Z,1.50
2022-10-01T06:51:05.755Z,1.58
2022-10-01T06:53:32.494Z,1.52
2022-10-01T06:56:05.334Z,1.50
2022-10-01T06:58:32.279Z,1.70
2022-10-01T07:01:01.353Z,1.63
2022-10-01T07:03:28.769Z,1.70
2022-10-01T07:06:01.622Z,1.92
2022-10-01T07:08:28.344Z,1.60
2022-10-01T07:11:00.006Z,1.30
2022-10-01T07:13:26.494Z,1.48
2022-10-01T07:15:53.073Z,1.70
2022-10-01T07:18:19.610Z,1.80
2022-10-01T07:20:46.318Z,1.92
2022-10-01T07:23:14.563Z,1.80
2022-10-01T07:25:42.494Z,1.90
2022-10-01T07:28:16.602Z,1.50
2022-10-01T07:30:59.605Z,1.80
2022-10-01T07:33:27.007Z,1.73
2022-10-01T07:35:53.725Z,1.70
2022-10-01T07:38:20.371Z,2.00
2022-10-01T07:40:54.913Z,1.65
2022-10-01T07:43:22.535Z,1.98
2022-10-01T07:45:50.069Z,2.78
2022-10-01T07:48:16.903Z,2.20
2022-10-01T07:50:45.375Z,3.00
2022-10-01T07:53:12.382Z,2.60
2022-10-01T07:55:40.099Z,2.58
2022-10-01T07:58:06.689Z,2.10
2022-10-01T08:00:34.768Z,2.10
2022-10-01T08:03:01.837Z,2.05
2022-10-01T08:05:31.419Z,2.20
2022-10-01T08:08:03.624Z,2.20
2022-10-01T08:10:30.334Z,2.45
2022-10-01T08:13:14.409Z,2.40
2022-10-01T08:15:42.958Z,3.42
2022-10-01T08:18:11.052Z,2.30
2022-10-01T08:20:40.009Z,2.40
2022-10-01T08:23:10.467Z,2.70
2022-10-01T08:25:37.801Z,2.28
2022-10-01T08:28:05.320Z,2.08
2022-10-01T08:30:31.941Z,2.30
2022-10-01T08:33:00.210Z,2.30
2022-10-01T08:35:27.885Z,2.55
2022-10-01T08:37:57.440Z,2.40
2022-10-01T08:40:24.215Z,2.63
2022-10-01T08:43:07.453Z,2.40
2022-10-01T08:45:49.220Z,2.33
2022-10-01T08:48:25.912Z,2.65
2022-10-01T08:50:57.633Z,3.40
2022-10-01T08:53:42.840Z,3.03
2022-10-01T08:56:22.976Z,3.22
2022-10-01T08:58:59.237Z,3.00
2022-10-01T09:01:27.165Z,2.80
2022-10-01T09:03:54.237Z,3.05
2022-10-01T09:06:26.319Z,2.50
2022-10-01T09:09:38.751Z,3.75
2022-10-01T09:12:08.455Z,2.85
2022-10-01T09:14:53.962Z,2.97
2022-10-01T09:17:35.922Z,3.30
2022-10-01T09:20:31.853Z,3.10
2022-10-01T09:23:12.249Z,2.85
2022-10-01T09:25:40.077Z,2.80
2022-10-01T09:28:23.460Z,3.33
2022-10-01T09:31:04.003Z,2.85
2022-10-01T09:33:34.946Z,3.00
2022-10-01T09:36:34.298Z,3.22
2022-10-01T09:39:13.558Z,3.10
2022-10-01T09:41:40.405Z,2.60
2022-10-01T09:44:18.912Z,2.70
2022-10-01T09:46:47.037Z,3.20
2022-10-01T09:49:27.646Z,3.35
2022-10-01T09:52:18.844Z,2.90
2022-10-01T09:55:00.250Z,2.78
2022-10-01T09:57:33.790Z,3.33
2022-10-01T10:00:11.943Z,2.30
2022-10-01T10:02:48.910Z,2.47
2022-10-01T10:05:25.495Z,2.65
2022-10-01T10:08:05.241Z,2.65
2022-10-01T10:10:39.377Z,2.63
2022-10-01T10:13:39.304Z,3.90
2022-10-01T10:16:10.666Z,2.50
2022-10-01T10:18:39.446Z,2.67
2022-10-01T10:21:16.307Z,2.60
2022-10-01T10:23:50.871Z,2.70
2022-10-01T10:26:33.551Z,2.80
2022-10-01T10:29:02.850Z,2.90
2022-10-01T10:31:43.402Z,3.55
2022-10-01T10:34:31.907Z,3.78
2022-10-01T10:37:01.184Z,3.08
2022-10-01T10:39:31.610Z,3.17
2022-10-01T10:42:00.181Z,2.83
2022-10-01T10:44:36.267Z,2.50
2022-10-01T10:47:09.072Z,2.75
2022-10-01T10:49:45.691Z,2.50
2022-10-01T10:54:49.687Z,2.30
2022-10-01T10:57:28.705Z,2.10
2022-10-01T11:00:00.544Z,2.15
2022-10-01T11:02:30.460Z,1.85
2022-10-01T11:05:15.966Z,2.00
2022-10-01T11:07:45.476Z,1.60
2022-10-01T11:10:21.741Z,1.80
2022-10-01T11:12:57.708Z,1.90
2022-10-01T11:15:43.276Z,2.25
2022-10-01T11:18:15.564Z,1.60
2022-10-01T11:21:19.872Z,2.20
2022-10-01T11:24:04.865Z,1.50
2022-10-01T11:26:50.550Z,1.90
2022-10-01T11:29:41.910Z,1.95
2022-10-01T11:32:19.642Z,1.67
2022-10-01T11:34:55.728Z,2.03
2022-10-01T11:37:41.746Z,2.00
2022-10-01T11:40:41.927Z,1.75
2022-10-01T11:43:21.353Z,1.92
2022-10-01T11:45:54.129Z,1.40
2022-10-01T11:48:40.986Z,1.58
2022-10-01T11:51:20.530Z,1.52
2022-10-01T11:53:55.642Z,1.80
2022-10-01T11:56:46.030Z,1.65
2022-10-01T11:59:37.921Z,1.60
2022-10-01T12:02:41.607Z,2.10
2022-10-01T12:05:17.172Z,1.90
2022-10-01T12:07:58.343Z,1.60
2022-10-01T12:10:46.645Z,1.45
2022-10-01T12:13:16.128Z,1.67
2022-10-01T12:15:53.289Z,1.73
2022-10-01T12:18:29.393Z,1.88
2022-10-01T12:21:00.338Z,2.67
2022-10-01T12:23:32.690Z,1.83
2022-10-01T12:26:19.402Z,1.70
2022-10-01T12:29:03.966Z,1.70
2022-10-01T12:32:00.902Z,2.13
2022-10-01T12:34:43.379Z,1.42
2022-10-01T12:37:20.934Z,1.38
2022-10-01T12:40:31.147Z,1.67
2022-10-01T12:43:27.653Z,1.77
2022-10-01T12:46:06.123Z,1.73
2022-10-01T12:48:59.677Z,1.20
2022-10-01T12:51:43.679Z,1.48
2022-10-01T12:54:47.072Z,1.40
2022-10-01T12:57:19.814Z,1.27
2022-10-01T13:00:22.659Z,1.90
2022-10-01T13:03:10.847Z,2.13
2022-10-01T13:06:01.250Z,1.45
2022-10-01T13:08:38.313Z,1.55
2022-10-01T13:11:21.605Z,1.77
2022-10-01T13:13:53.717Z,1.90
2022-10-01T13:16:33.999Z,2.10
2022-10-01T13:19:06.739Z,1.60
2022-10-01T13:21:57.843Z,1.52
2022-10-01T13:24:53.215Z,2.53
2022-10-01T13:27:37.100Z,1.90
2022-10-01T13:30:17.000Z,1.80
2022-10-01T13:32:54.346Z,1.63
2022-10-01T13:35:39.440Z,1.75
2022-10-01T13:38:17.409Z,1.70
2022-10-01T13:40:44.871Z,1.70
2022-10-01T13:43:23.282Z,1.70
2022-10-01T13:45:52.456Z,1.90
2022-10-01T13:48:33.337Z,1.38
2022-10-01T13:51:03.697Z,2.08
2022-10-01T13:53:35.383Z,1.95
2022-10-01T13:56:04.640Z,2.45
2022-10-01T13:58:44.417Z,1.75
2022-10-01T14:01:21.390Z,1.48
2022-10-01T14:03:55.611Z,1.52
2022-10-01T14:06:31.254Z,1.52
2022-10-01T14:09:07.420Z,1.33
2022-10-01T14:11:56.094Z,1.95
2022-10-01T14:15:07.302Z,1.60
2022-10-01T14:17:36.499Z,1.58
2022-10-01T14:20:04.153Z,1.50
2022-10-01T14:23:11.063Z,1.80
2022-10-01T14:26:07.849Z,1.75
2022-10-01T14:29:08.317Z,1.58
2022-10-01T14:31:40.764Z,1.17
2022-10-01T14:34:19.977Z,1.48
2022-10-01T14:36:54.271Z,1.85
2022-10-01T14:39:24.204Z,1.75
2022-10-01T14:41:53.006Z,1.52
2022-10-01T14:44:32.198Z,1.70
2022-10-01T14:46:59.980Z,1.67
2022-10-01T14:49:28.247Z,1.98
2022-10-01T14:52:03.309Z,1.70
2022-10-01T14:54:39.002Z,2.33
2022-10-01T14:57:11.616Z,1.60
2022-10-01T14:59:40.904Z,2.00
2022-10-01T15:02:20.467Z,1.73
2022-10-01T15:04:52.723Z,1.92
2022-10-01T15:07:19.905Z,1.70
2022-10-01T15:09:47.854Z,1.88
2022-10-01T15:12:17.036Z,2.38
2022-10-01T15:14:45.116Z,1.85
2022-10-01T15:17:27.656Z,1.83
2022-10-01T15:19:56.345Z,1.65
2022-10-01T15:22:29.487Z,2.00
2022-10-01T15:25:01.025Z,1.67
2022-10-01T15:27:27.909Z,2.00
2022-10-01T15:29:57.333Z,1.77
2022-10-01T15:32:25.533Z,1.55
2022-10-01T15:34:59.860Z,1.92
2022-10-01T15:37:35.760Z,1.90
2022-10-01T15:40:06.044Z,2.35
2022-10-01T15:42:34.840Z,1.55
2022-10-01T15:45:07.507Z,2.13
2022-10-01T15:47:39.446Z,2.22
2022-10-01T15:50:08.813Z,2.10
2022-10-01T15:52:50.665Z,2.08
2022-10-01T15:55:26.337Z,1.60
2022-10-01T15:58:03.825Z,1.73
2022-10-01T16:00:34.910Z,1.70
2022-10-01T16:03:03.497Z,1.90
2022-10-01T16:05:45.577Z,1.83
2022-10-01T16:08:21.677Z,2.15
2022-10-01T16:11:32.128Z,1.67
2022-10-01T16:14:23.769Z,1.92
2022-10-01T16:16:52.154Z,1.67
2022-10-01T16:19:31.578Z,1.67
2022-10-01T16:22:22.754Z,1.73
2022-10-01T16:25:16.235Z,2.15
2022-10-01T16:27:50.758Z,2.63
2022-10-01T16:30:27.112Z,1.98
2022-10-01T16:32:54.739Z,1.45
2022-10-01T16:35:24.719Z,2.35
2022-10-01T16:37:54.173Z,2.10
2022-10-01T16:40:26.917Z,2.17
2022-10-01T16:42:54.183Z,2.30
2022-10-01T16:45:24.628Z,3.05
2022-10-01T16:47:52.805Z,2.30
2022-10-01T16:50:24.519Z,2.42
2022-10-01T16:52:55.616Z,2.22
2022-10-01T16:55:26.264Z,2.33
2022-10-01T16:57:57.171Z,1.98
2022-10-01T17:00:25.821Z,2.28
2022-10-01T17:02:54.472Z,2.05
2022-10-01T17:05:25.815Z,2.67
2022-10-01T17:07:53.077Z,3.20
2022-10-01T17:10:22.605Z,2.20
2022-10-01T17:12:49.294Z,2.42
2022-10-01T17:15:19.478Z,2.22
2022-10-01T17:17:46.548Z,2.40
2022-10-01T17:20:13.597Z,2.13
2022-10-01T17:22:40.373Z,1.80
2022-10-01T17:25:07.460Z,2.20
2022-10-01T17:27:33.995Z,2.28
2022-10-01T17:30:00.742Z,2.25
2022-10-01T17:32:27.856Z,1.85
2022-10-01T17:34:54.515Z,1.98
2022-10-01T17:37:23.869Z,1.92
2022-10-01T17:39:50.558Z,1.88
2022-10-01T17:42:18.097Z,2.15
2022-10-01T17:44:46.239Z,2.03
2022-10-01T17:47:12.828Z,2.28
2022-10-01T17:49:39.612Z,3.88
2022-10-01T17:52:06.308Z,2.95
2022-10-01T17:54:33.285Z,2.88
2022-10-01T17:56:59.887Z,2.50
2022-10-01T17:59:27.751Z,2.38
2022-10-01T18:01:54.491Z,3.35
2022-10-01T18:04:21.616Z,2.63
2022-10-01T18:06:49.091Z,2.45
2022-10-01T18:09:15.853Z,2.67
2022-10-01T18:11:42.400Z,2.67
2022-10-01T18:14:09.093Z,2.55
2022-10-01T18:16:36.082Z,2.65
2022-10-01T18:21:51.138Z,3.05
2022-10-01T18:24:17.813Z,2.60
2022-10-01T18:26:45.786Z,3.53
2022-10-01T18:29:23.584Z,3.78
2022-10-01T18:31:52.731Z,3.35
2022-10-01T18:34:29.866Z,3.30
2022-10-01T18:37:11.798Z,3.13
2022-10-01T18:39:45.189Z,4.45
2022-10-01T18:42:33.601Z,2.33
2022-10-01T18:45:02.829Z,3.05
2022-10-01T18:47:52.777Z,2.90
2022-10-01T18:50:51.424Z,2.50
2022-10-01T18:53:39.149Z,2.45
2022-10-01T18:56:20.940Z,2.08
2022-10-01T18:59:12.842Z,2.40
2022-10-01T19:02:17.199Z,2.35
2022-10-01T19:04:49.902Z,2.15
2022-10-01T19:07:38.030Z,2.33
2022-10-01T19:10:19.506Z,2.03
2022-10-01T19:12:55.519Z,2.58
2022-10-01T19:15:33.842Z,2.42
2022-10-01T19:18:24.360Z,2.63
2022-10-01T19:21:13.270Z,3.33
2022-10-01T19:24:01.696Z,2.17
2022-10-01T19:26:52.460Z,2.13
2022-10-01T19:29:24.911Z,2.33
2022-10-01T19:31:57.475Z,1.77
2022-10-01T19:34:38.880Z,2.40
2022-10-01T19:37:11.815Z,2.50
2022-10-01T19:39:41.452Z,2.30
2022-10-01T19:42:31.235Z,1.58
2022-10-01T19:45:21.416Z,1.40
2022-10-01T19:48:18.251Z,1.80
2022-10-01T19:50:51.554Z,1.47
2022-10-01T19:53:31.859Z,1.70
2022-10-01T19:56:01.364Z,1.58
2022-10-01T19:58:31.380Z,1.67
2022-10-01T20:01:00.790Z,1.65
2022-10-01T20:03:38.761Z,1.35
2022-10-01T20:06:14.701Z,1.52
2022-10-01T20:08:55.839Z,1.73
2022-10-01T20:11:41.196Z,2.05
2022-10-01T20:14:47.609Z,1.40
2022-10-01T20:17:43.422Z,1.27
2022-10-01T20:20:28.655Z,1.30
2022-10-01T20:22:59.945Z,1.95
2022-10-01T20:25:45.182Z,1.40
2022-10-01T20:28:29.513Z,1.50
2022-10-01T20:30:59.180Z,1.27
2022-10-01T20:33:55.216Z,1.70
2022-10-01T20:36:35.027Z,1.88
2022-10-01T20:39:22.709Z,1.63
2022-10-01T20:41:53.692Z,1.65
2022-10-01T20:44:31.705Z,1.50
2022-10-01T20:47:27.534Z,1.40
2022-10-01T20:50:28.084Z,1.30
2022-10-01T20:53:30.424Z,1.77
2022-10-01T20:56:05.039Z,1.30
2022-10-01T20:58:38.538Z,1.35
2022-10-01T21:01:17.783Z,1.25
2022-10-01T21:03:49.434Z,1.33
2022-10-01T21:06:28.578Z,1.30
2022-10-01T21:09:18.761Z,1.08
2022-10-01T21:11:53.847Z,1.38
2022-10-01T21:14:33.402Z,1.50
2022-10-01T21:17:15.034Z,1.52
2022-10-01T21:19:47.443Z,1.70
2022-10-01T21:22:13.970Z,1.58
2022-10-01T21:24:46.435Z,1.52
2022-10-01T21:27:37.516Z,1.50
2022-10-01T21:30:17.332Z,1.40
2022-10-01T21:33:08.853Z,1.80
2022-10-01T21:35:56.655Z,1.63
2022-10-01T21:38:42.923Z,1.70
2022-10-01T21:41:49.168Z,1.83
2022-10-01T21:44:21.528Z,1.98
2022-10-01T21:47:09.119Z,1.92
2022-10-01T21:49:54.631Z,2.08
2022-10-01T21:52:21.204Z,2.08
2022-10-01T21:55:09.244Z,2.00
2022-10-01T21:57:54.223Z,2.15
2022-10-01T22:00:26.360Z,2.60
2022-10-01T22:03:00.166Z,1.98
2022-10-01T22:05:51.565Z,2.28
2022-10-01T22:08:50.278Z,2.22
2022-10-01T22:11:27.706Z,2.03
2022-10-01T22:14:00.052Z,2.63
2022-10-01T22:16:32.749Z,2.20
2022-10-01T22:19:13.863Z,2.25
2022-10-01T22:21:46.224Z,2.45
2022-10-01T22:24:27.108Z,2.78
2022-10-01T22:27:09.599Z,2.00
2022-10-01T22:29:41.522Z,2.42
2022-10-01T22:32:13.717Z,2.90
2022-10-01T22:34:54.986Z,2.22
2022-10-01T22:37:44.203Z,2.17
2022-10-01T22:40:18.478Z,2.45
2022-10-01T22:43:05.538Z,2.22
2022-10-01T22:45:59.452Z,3.03
2022-10-01T22:48:46.898Z,2.83
2022-10-01T22:51:34.676Z,2.58
2022-10-01T22:54:34.710Z,2.70
2022-10-01T22:57:01.547Z,2.50
2022-10-01T22:59:46.823Z,3.03
2022-10-01T23:02:35.126Z,2.63
2022-10-01T23:05:13.661Z,2.55
2022-10-01T23:08:08.631Z,2.70
2022-10-01T23:11:09.322Z,2.40
2022-10-01T23:14:01.981Z,2.63
2022-10-01T23:16:57.376Z,2.28
2022-10-01T23:19:51.010Z,2.10
2022-10-01T23:22:23.332Z,3.13
2022-10-01T23:25:15.010Z,2.40
2022-10-01T23:27:47.732Z,2.60
2022-10-01T23:30:19.489Z,2.63
2022-10-01T23:33:04.629Z,3.13
2022-10-01T23:35:46.938Z,2.20
2022-10-01T23:38:31.633Z,2.20
2022-10-01T23:41:04.628Z,2.40
2022-10-01T23:43:37.526Z,2.80
2022-10-01T23:46:11.310Z,2.10
2022-10-01T23:48:50.587Z,1.88
2022-10-01T23:51:26.881Z,2.80
2022-10-01T23:53:53.456Z,2.20
2022-10-01T23:57:04.536Z,2.45
2022-10-01T23:59:57.137Z,2.90
